createdAt,value
2018-05-14T00:02:22.702Z,5.90
2018-05-14T00:04:51.026Z,6.43
2018-05-14T00:07:19.515Z,6.20
2018-05-14T00:09:47.895Z,6.33
2018-05-14T00:12:16.320Z,5.80
2018-05-14T00:14:44.651Z,6.37
2018-05-14T00:17:12.980Z,6.00
2018-05-14T00:19:41.364Z,6.03
2018-05-14T00:22:09.768Z,5.67
2018-05-14T00:24:38.088Z,5.63
2018-05-14T00:27:06.407Z,6.20
2018-05-14T00:29:34.725Z,6.27
2018-05-14T00:32:03.120Z,6.17
2018-05-14T00:34:31.442Z,6.23
2018-05-14T00:36:59.771Z,5.90
2018-05-14T00:39:28.112Z,6.10
2018-05-14T00:41:56.447Z,5.47
2018-05-14T00:44:24.768Z,6.57
2018-05-14T00:46:53.540Z,6.23
2018-05-14T00:49:21.897Z,6.23
2018-05-14T00:51:50.279Z,6.33
2018-05-14T00:54:18.661Z,5.90
2018-05-14T00:56:46.977Z,5.90
2018-05-14T00:59:15.387Z,6.03
2018-05-14T01:01:43.691Z,6.80
2018-05-14T01:04:12.035Z,6.57
2018-05-14T01:06:40.591Z,6.53
2018-05-14T01:09:09.018Z,6.43
2018-05-14T01:11:37.364Z,6.00
2018-05-14T01:14:05.680Z,5.70
2018-05-14T01:16:34.044Z,5.67
2018-05-14T01:19:02.382Z,6.20
2018-05-14T01:21:30.711Z,6.73
2018-05-14T01:23:59.061Z,7.00
2018-05-14T01:26:27.575Z,6.53
2018-05-14T01:29:09.009Z,6.57
2018-05-14T01:31:39.593Z,6.77
2018-05-14T01:34:08.043Z,6.70
2018-05-14T01:36:36.376Z,6.70
2018-05-14T01:39:04.801Z,7.23
2018-05-14T01:41:33.120Z,6.57
2018-05-14T01:44:01.457Z,6.27
2018-05-14T01:46:39.791Z,6.57
2018-05-14T01:49:10.331Z,6.60
2018-05-14T01:51:38.647Z,6.93
2018-05-14T01:54:07.038Z,6.90
2018-05-14T01:56:35.367Z,7.20
2018-05-14T01:59:03.695Z,6.87
2018-05-14T02:01:32.203Z,6.80
2018-05-14T02:04:00.538Z,6.37
2018-05-14T02:06:28.982Z,6.30
2018-05-14T02:08:57.325Z,6.67
2018-05-14T02:11:25.680Z,6.93
2018-05-14T02:13:54.052Z,7.17
2018-05-14T02:16:22.371Z,6.90
2018-05-14T02:18:50.718Z,7.27
2018-05-14T02:21:19.241Z,6.67
2018-05-14T02:23:48.036Z,6.87
2018-05-14T02:26:16.362Z,7.90
2018-05-14T02:31:23.749Z,7.07
2018-05-14T02:33:52.082Z,7.27
2018-05-14T02:36:20.411Z,6.90
2018-05-14T02:38:48.745Z,6.83
2018-05-14T02:41:18.198Z,7.37
2018-05-14T02:43:46.543Z,6.37
2018-05-14T02:46:14.927Z,7.63
2018-05-14T02:48:43.269Z,6.67
2018-05-14T02:51:11.587Z,6.70
2018-05-14T02:53:39.930Z,7.47
2018-05-14T02:56:08.422Z,7.43
2018-05-14T02:58:36.753Z,7.90
2018-05-14T03:01:05.081Z,8.53
2018-05-14T03:03:33.555Z,8.10
2018-05-14T03:06:01.930Z,7.00
2018-05-14T03:08:30.256Z,7.30
2018-05-14T03:10:58.607Z,7.17
2018-05-14T03:13:26.920Z,7.50
2018-05-14T03:15:55.259Z,7.73
2018-05-14T03:18:23.597Z,6.50
2018-05-14T03:20:52.625Z,8.83
2018-05-14T03:23:21.188Z,7.97
2018-05-14T03:25:49.775Z,7.43
2018-05-14T03:28:18.105Z,7.80
2018-05-14T03:30:48.217Z,7.33
2018-05-14T03:33:16.569Z,9.30
2018-05-14T03:35:44.894Z,7.87
2018-05-14T03:38:13.527Z,8.10
2018-05-14T03:40:41.896Z,7.93
2018-05-14T03:43:10.552Z,8.23
2018-05-14T03:45:38.892Z,7.50
2018-05-14T03:48:07.264Z,8.10
2018-05-14T03:50:36.427Z,7.50
2018-05-14T03:53:04.752Z,8.47
2018-05-14T03:55:33.059Z,7.73
2018-05-14T03:58:01.364Z,7.73
2018-05-14T04:00:41.711Z,8.00
2018-05-14T04:03:21.989Z,7.47
2018-05-14T04:06:02.382Z,7.57
2018-05-14T04:08:30.771Z,8.37
2018-05-14T04:10:59.234Z,8.40
2018-05-14T04:13:27.668Z,8.17
2018-05-14T04:15:56.046Z,7.90
2018-05-14T04:18:24.387Z,8.77
2018-05-14T04:20:52.709Z,8.73
2018-05-14T04:23:21.140Z,7.73
2018-05-14T04:25:49.488Z,7.87
2018-05-14T04:28:17.830Z,8.90
2018-05-14T04:30:46.242Z,8.77
2018-05-14T04:33:14.585Z,7.47
2018-05-14T04:35:42.887Z,8.20
2018-05-14T04:38:11.228Z,8.03
2018-05-14T04:40:39.674Z,8.83
2018-05-14T04:43:08.024Z,7.90
2018-05-14T04:45:36.457Z,8.40
2018-05-14T04:48:04.847Z,8.13
2018-05-14T04:50:33.219Z,8.67
2018-05-14T04:53:01.629Z,8.40
2018-05-14T04:55:30.036Z,9.13
2018-05-14T04:57:58.375Z,9.43
2018-05-14T05:00:26.690Z,9.27
2018-05-14T05:02:55.899Z,9.27
2018-05-14T05:05:24.237Z,10.13
2018-05-14T05:07:52.603Z,10.57
2018-05-14T05:10:20.967Z,9.30
2018-05-14T05:12:49.305Z,9.70
2018-05-14T05:15:17.669Z,8.67
2018-05-14T05:17:46.075Z,9.57
2018-05-14T05:20:14.451Z,9.23
2018-05-14T05:22:42.799Z,9.70
2018-05-14T05:25:11.170Z,10.53
2018-05-14T05:27:39.555Z,9.63
2018-05-14T05:30:07.884Z,9.73
2018-05-14T05:32:36.216Z,9.50
2018-05-14T05:35:04.548Z,11.67
2018-05-14T05:37:32.872Z,7.87
2018-05-14T05:40:01.209Z,9.10
2018-05-14T05:42:29.610Z,10.20
2018-05-14T05:44:57.934Z,9.60
2018-05-14T05:47:26.267Z,9.10
2018-05-14T05:49:54.647Z,7.70
2018-05-14T05:52:22.996Z,8.50
2018-05-14T05:54:51.315Z,9.57
2018-05-14T05:57:19.743Z,13.57
2018-05-14T05:59:48.085Z,13.00
2018-05-14T06:02:16.538Z,10.63
2018-05-14T06:04:44.876Z,11.10
2018-05-14T06:07:13.214Z,8.17
2018-05-14T06:09:41.595Z,9.80
2018-05-14T06:12:09.942Z,9.63
2018-05-14T06:14:38.276Z,10.13
2018-05-14T06:17:06.668Z,8.57
2018-05-14T06:19:35.063Z,10.50
2018-05-14T06:22:03.549Z,8.90
2018-05-14T06:24:31.882Z,9.17
2018-05-14T06:27:00.230Z,8.87
2018-05-14T06:29:28.625Z,8.13
2018-05-14T06:31:56.968Z,8.03
2018-05-14T06:34:25.308Z,8.07
2018-05-14T06:36:53.718Z,8.27
2018-05-14T06:39:22.062Z,8.90
2018-05-14T06:41:50.510Z,7.90
2018-05-14T06:44:18.941Z,8.03
2018-05-14T06:46:47.182Z,8.43
2018-05-14T06:49:15.535Z,9.27
2018-05-14T06:51:43.967Z,7.43
2018-05-14T06:54:12.295Z,7.35
2018-05-14T06:56:40.611Z,8.20
2018-05-14T06:59:09.031Z,8.25
2018-05-14T07:01:37.366Z,7.47
2018-05-14T07:04:05.815Z,7.35
2018-05-14T07:06:34.208Z,7.22
2018-05-14T07:09:02.580Z,7.32
2018-05-14T07:11:31.050Z,7.50
2018-05-14T07:13:59.390Z,7.40
2018-05-14T07:16:27.717Z,7.87
2018-05-14T07:18:56.283Z,7.47
2018-05-14T07:21:24.619Z,6.78
2018-05-14T07:23:53.015Z,7.60
2018-05-14T07:26:21.458Z,7.65
2018-05-14T07:28:49.841Z,7.18
2018-05-14T07:31:18.240Z,6.68
2018-05-14T07:33:46.581Z,6.90
2018-05-14T07:36:15.002Z,8.88
2018-05-14T07:38:43.246Z,7.20
2018-05-14T07:41:11.607Z,7.00
2018-05-14T07:43:40.068Z,7.15
2018-05-14T07:46:13.081Z,6.15
2018-05-14T07:48:41.391Z,5.47
2018-05-14T07:51:10.025Z,7.05
2018-05-14T07:53:38.128Z,6.18
2018-05-14T07:56:06.451Z,5.05
2018-05-14T07:58:34.783Z,6.60
2018-05-14T08:01:03.153Z,5.15
2018-05-14T08:03:31.501Z,5.65
2018-05-14T08:05:59.830Z,5.70
2018-05-14T08:08:28.247Z,5.43
2018-05-14T08:10:56.658Z,5.40
2018-05-14T08:13:24.990Z,5.43
2018-05-14T08:15:53.306Z,5.90
2018-05-14T08:18:21.687Z,7.82
2018-05-14T08:20:50.020Z,6.82
2018-05-14T08:23:18.378Z,7.60
2018-05-14T08:25:46.719Z,8.17
2018-05-14T08:28:15.160Z,7.33
2018-05-14T08:30:43.484Z,6.97
2018-05-14T08:33:11.796Z,8.13
2018-05-14T08:35:40.237Z,7.23
2018-05-14T08:38:08.555Z,6.93
2018-05-14T08:40:36.880Z,8.63
2018-05-14T08:43:05.213Z,6.40
2018-05-14T08:45:33.612Z,5.93
2018-05-14T08:48:01.947Z,5.90
2018-05-14T08:50:30.288Z,5.43
2018-05-14T08:52:58.780Z,5.43
2018-05-14T08:55:27.216Z,6.93
2018-05-14T08:57:55.532Z,5.13
2018-05-14T09:00:23.871Z,5.27
2018-05-14T09:02:52.428Z,5.10
2018-05-14T09:05:20.563Z,4.50
2018-05-14T09:07:48.881Z,4.70
2018-05-14T09:10:17.226Z,4.93
2018-05-14T09:12:45.545Z,3.97
2018-05-14T09:15:13.914Z,4.13
2018-05-14T09:17:42.284Z,5.80
2018-05-14T09:20:10.615Z,4.30
2018-05-14T09:22:38.991Z,4.20
2018-05-14T09:25:07.376Z,5.03
2018-05-14T09:27:35.761Z,3.93
2018-05-14T09:30:04.122Z,5.37
2018-05-14T09:32:32.439Z,4.87
2018-05-14T09:35:00.765Z,4.37
2018-05-14T09:37:29.140Z,4.67
2018-05-14T09:39:57.524Z,4.60
2018-05-14T09:42:25.883Z,5.03
2018-05-14T09:44:54.206Z,4.07
2018-05-14T09:47:22.611Z,4.40
2018-05-14T09:49:50.949Z,4.17
2018-05-14T09:52:19.325Z,4.33
2018-05-14T09:54:47.637Z,4.40
2018-05-14T09:57:16.006Z,4.83
2018-05-14T09:59:44.348Z,3.93
2018-05-14T10:02:12.683Z,5.23
2018-05-14T10:04:41.008Z,4.27
2018-05-14T10:07:09.362Z,4.70
2018-05-14T10:09:37.707Z,6.63
2018-05-14T10:12:06.105Z,4.07
2018-05-14T10:14:34.433Z,4.83
2018-05-14T10:17:02.778Z,4.53
2018-05-14T10:19:31.097Z,4.70
2018-05-14T10:21:59.464Z,4.63
2018-05-14T10:24:27.877Z,4.70
2018-05-14T10:26:56.219Z,4.20
2018-05-14T10:29:24.561Z,4.63
2018-05-14T10:31:52.972Z,4.93
2018-05-14T10:34:21.246Z,4.17
2018-05-14T10:36:49.601Z,4.73
2018-05-14T10:39:17.927Z,5.73
2018-05-14T10:41:46.264Z,4.03
2018-05-14T10:44:14.613Z,4.33
2018-05-14T10:46:43.051Z,4.10
2018-05-14T10:49:11.500Z,4.60
2018-05-14T10:51:39.831Z,5.00
2018-05-14T10:54:08.165Z,4.47
2018-05-14T10:56:36.573Z,3.65
2018-05-14T10:59:04.968Z,4.53
2018-05-14T11:01:33.296Z,4.32
2018-05-14T11:04:01.629Z,4.25
2018-05-14T11:06:29.991Z,3.80
2018-05-14T11:08:58.358Z,3.95
2018-05-14T11:11:26.709Z,4.10
2018-05-14T11:13:55.006Z,4.70
2018-05-14T11:16:23.402Z,3.87
2018-05-14T11:18:51.756Z,3.80
2018-05-14T11:21:20.147Z,3.70
2018-05-14T11:23:48.462Z,3.57
2018-05-14T11:26:16.797Z,4.80
2018-05-14T11:28:45.212Z,3.80
2018-05-14T11:31:13.725Z,6.12
2018-05-14T11:33:42.035Z,4.93
2018-05-14T11:36:10.394Z,4.85
2018-05-14T11:38:38.770Z,4.53
2018-05-14T11:41:07.134Z,4.10
2018-05-14T11:43:35.978Z,4.82
2018-05-14T11:46:04.431Z,5.20
2018-05-14T11:48:32.995Z,4.62
2018-05-14T11:51:01.353Z,4.93
2018-05-14T11:53:29.684Z,4.32
2018-05-14T11:55:58.008Z,5.53
2018-05-14T11:58:26.376Z,4.00
2018-05-14T12:00:54.793Z,4.70
2018-05-14T12:03:23.137Z,4.55
2018-05-14T12:05:51.469Z,4.30
2018-05-14T12:08:19.857Z,4.30
2018-05-14T12:10:48.187Z,5.22
2018-05-14T12:13:16.541Z,4.20
2018-05-14T12:15:44.858Z,3.50
2018-05-14T12:18:13.308Z,3.70
2018-05-14T12:20:41.537Z,4.00
2018-05-14T12:23:09.908Z,4.05
2018-05-14T12:25:38.320Z,4.00
2018-05-14T12:28:06.568Z,4.40
2018-05-14T12:30:34.941Z,3.97
2018-05-14T12:33:03.487Z,4.07
2018-05-14T12:35:31.778Z,3.58
2018-05-14T12:38:00.147Z,4.97
2018-05-14T12:40:28.550Z,3.53
2018-05-14T12:42:56.915Z,3.97
2018-05-14T12:45:25.238Z,3.30
2018-05-14T12:47:53.662Z,3.97
2018-05-14T12:50:22.005Z,3.72
2018-05-14T12:52:50.407Z,3.47
2018-05-14T12:55:18.719Z,4.30
2018-05-14T12:57:47.054Z,4.53
2018-05-14T13:00:15.420Z,5.75
2018-05-14T13:02:43.795Z,4.65
2018-05-14T13:05:12.116Z,4.32
2018-05-14T13:07:40.658Z,4.00
2018-05-14T13:10:09.048Z,3.62
2018-05-14T13:12:37.443Z,4.40
2018-05-14T13:15:05.774Z,4.07
2018-05-14T13:17:34.085Z,3.83
2018-05-14T13:20:02.523Z,5.45
2018-05-14T13:22:30.923Z,3.95
2018-05-14T13:24:59.310Z,3.72
2018-05-14T13:27:27.640Z,4.30
2018-05-14T13:29:56.287Z,4.15
2018-05-14T13:32:24.707Z,4.68
2018-05-14T13:34:53.052Z,4.47
2018-05-14T13:37:21.518Z,3.65
2018-05-14T13:39:49.860Z,3.85
2018-05-14T13:42:18.177Z,4.75
2018-05-14T13:44:46.513Z,6.18
2018-05-14T13:47:15.447Z,4.30
2018-05-14T13:49:43.792Z,4.57
2018-05-14T13:52:12.122Z,4.30
2018-05-14T13:54:40.544Z,4.30
2018-05-14T13:57:08.940Z,3.87
2018-05-14T13:59:37.329Z,4.15
2018-05-14T14:02:05.693Z,5.07
2018-05-14T14:04:34.130Z,5.30
2018-05-14T14:07:02.477Z,4.70
2018-05-14T14:09:30.907Z,4.70
2018-05-14T14:12:00.104Z,4.47
2018-05-14T14:14:28.412Z,3.67
2018-05-14T14:16:56.836Z,4.60
2018-05-14T14:19:25.128Z,5.27
2018-05-14T14:21:53.496Z,4.93
2018-05-14T14:24:22.044Z,5.50
2018-05-14T14:26:50.209Z,4.97
2018-05-14T14:29:18.592Z,4.13
2018-05-14T14:31:46.942Z,3.80
2018-05-14T14:34:15.290Z,4.23
2018-05-14T14:36:43.742Z,4.47
2018-05-14T14:39:12.082Z,4.40
2018-05-14T14:41:40.412Z,4.23
2018-05-14T14:44:08.803Z,6.03
2018-05-14T14:46:37.916Z,5.10
2018-05-14T14:49:06.394Z,4.27
2018-05-14T14:51:34.725Z,4.10
2018-05-14T14:54:03.093Z,3.93
2018-05-14T14:56:31.422Z,4.43
2018-05-14T14:58:59.759Z,4.63
2018-05-14T15:01:28.098Z,4.33
2018-05-14T15:03:56.673Z,4.33
2018-05-14T15:06:25.052Z,4.70
2018-05-14T15:08:53.443Z,4.90
2018-05-14T15:11:21.846Z,4.93
2018-05-14T15:13:50.168Z,4.50
2018-05-14T15:16:18.494Z,4.20
2018-05-14T15:18:46.923Z,4.50
2018-05-14T15:21:16.199Z,4.13
2018-05-14T15:23:44.546Z,4.53
2018-05-14T15:26:12.893Z,3.83
2018-05-14T15:28:41.230Z,5.67
2018-05-14T15:31:09.548Z,4.37
2018-05-14T15:33:38.406Z,4.23
2018-05-14T15:36:06.777Z,5.53
2018-05-14T15:38:35.099Z,4.17
2018-05-14T15:41:03.523Z,4.50
2018-05-14T15:43:32.050Z,4.33
2018-05-14T15:46:00.380Z,4.70
2018-05-14T15:48:28.707Z,3.67
2018-05-14T15:50:59.128Z,4.90
2018-05-14T15:53:27.831Z,4.00
2018-05-14T15:55:56.156Z,4.17
2018-05-14T15:58:24.488Z,5.00
2018-05-14T16:00:52.925Z,4.20
2018-05-14T16:03:21.172Z,4.57
2018-05-14T16:05:53.856Z,4.30
2018-05-14T16:08:22.266Z,4.23
2018-05-14T16:10:51.034Z,4.03
2018-05-14T16:13:19.469Z,4.10
2018-05-14T16:15:47.854Z,4.47
2018-05-14T16:18:16.252Z,3.97
2018-05-14T16:20:44.663Z,6.10
2018-05-14T16:23:12.928Z,3.87
2018-05-14T16:25:41.319Z,3.97
2018-05-14T16:28:09.702Z,4.27
2018-05-14T16:30:38.048Z,4.13
2018-05-14T16:33:06.401Z,4.57
2018-05-14T16:35:34.727Z,4.10
2018-05-14T16:38:03.083Z,4.20
2018-05-14T16:40:31.451Z,4.93
2018-05-14T16:42:59.785Z,4.67
2018-05-14T16:45:28.114Z,4.90
2018-05-14T16:47:56.446Z,5.90
2018-05-14T16:50:24.888Z,4.57
2018-05-14T16:52:53.156Z,4.77
2018-05-14T16:55:21.523Z,5.77
2018-05-14T16:57:50.031Z,4.73
2018-05-14T17:00:18.319Z,4.30
2018-05-14T17:02:46.675Z,5.20
2018-05-14T17:05:15.100Z,4.97
2018-05-14T17:07:43.495Z,5.90
2018-05-14T17:10:11.809Z,4.53
2018-05-14T17:12:40.137Z,4.60
2018-05-14T17:15:08.561Z,4.80
2018-05-14T17:17:36.892Z,5.17
2018-05-14T17:20:05.246Z,4.80
2018-05-14T17:22:33.622Z,5.13
2018-05-14T17:25:02.033Z,4.50
2018-05-14T17:27:30.367Z,4.63
2018-05-14T17:29:58.698Z,4.33
2018-05-14T17:32:27.003Z,4.50
2018-05-14T17:34:55.434Z,5.00
2018-05-14T17:37:23.792Z,4.20
2018-05-14T17:39:52.128Z,4.73
2018-05-14T17:42:20.471Z,4.53
2018-05-14T17:44:49.009Z,6.00
2018-05-14T17:47:17.323Z,4.93
2018-05-14T17:49:45.757Z,5.10
2018-05-14T17:52:14.090Z,5.20
2018-05-14T17:54:42.422Z,4.20
2018-05-14T17:57:10.740Z,5.50
2018-05-14T17:59:39.125Z,4.57
2018-05-14T18:02:07.432Z,4.67
2018-05-14T18:04:35.745Z,4.77
2018-05-14T18:07:04.112Z,4.60
2018-05-14T18:09:32.504Z,5.20
2018-05-14T18:12:00.902Z,4.93
2018-05-14T18:14:29.387Z,4.77
2018-05-14T18:16:57.787Z,5.10
2018-05-14T18:19:26.102Z,4.67
2018-05-14T18:22:00.045Z,4.53
2018-05-14T18:24:28.478Z,5.67
2018-05-14T18:26:56.797Z,4.77
2018-05-14T18:29:31.657Z,5.13
2018-05-14T18:32:04.775Z,4.57
2018-05-14T18:34:39.687Z,4.97
2018-05-14T18:37:08.053Z,4.73
2018-05-14T18:39:36.372Z,4.80
2018-05-14T18:42:04.703Z,6.37
2018-05-14T18:44:33.970Z,5.43
2018-05-14T18:47:02.377Z,4.87
2018-05-14T18:49:30.722Z,4.53
2018-05-14T18:51:59.141Z,4.00
2018-05-14T18:54:27.528Z,4.03
2018-05-14T18:56:55.839Z,5.13
2018-05-14T18:59:24.212Z,4.10
2018-05-14T19:01:52.606Z,5.50
2018-05-14T19:04:21.015Z,4.03
2018-05-14T19:06:49.391Z,4.80
2018-05-14T19:09:17.744Z,3.80
2018-05-14T19:11:50.923Z,5.53
2018-05-14T19:14:19.259Z,4.17
2018-05-14T19:16:53.262Z,5.40
2018-05-14T19:19:21.661Z,4.67
2018-05-14T19:21:49.983Z,4.23
2018-05-14T19:24:18.839Z,4.67
2018-05-14T19:26:47.202Z,4.57
2018-05-14T19:29:21.271Z,4.00
2018-05-14T19:31:49.605Z,4.67
2018-05-14T19:34:23.535Z,4.93
2018-05-14T19:36:51.933Z,4.73
2018-05-14T19:39:25.835Z,4.37
2018-05-14T19:41:54.157Z,4.07
2018-05-14T19:44:22.628Z,5.27
2018-05-14T19:46:50.963Z,5.10
2018-05-14T19:49:19.343Z,4.43
2018-05-14T19:51:47.704Z,4.70
2018-05-14T19:54:16.034Z,4.90
2018-05-14T19:56:44.379Z,4.60
2018-05-14T19:59:12.780Z,4.00
2018-05-14T20:01:41.177Z,4.47
2018-05-14T20:04:09.660Z,4.37
2018-05-14T20:06:37.997Z,5.50
2018-05-14T20:09:06.349Z,4.53
2018-05-14T20:11:34.666Z,4.83
2018-05-14T20:14:03.071Z,5.10
2018-05-14T20:16:31.373Z,4.90
2018-05-14T20:18:59.692Z,4.33
2018-05-14T20:21:28.031Z,5.07
2018-05-14T20:23:56.611Z,4.93
2018-05-14T20:26:24.990Z,4.50
2018-05-14T20:28:53.394Z,4.93
2018-05-14T20:31:21.881Z,5.57
2018-05-14T20:33:50.151Z,4.90
2018-05-14T20:36:18.580Z,4.50
2018-05-14T20:38:46.905Z,5.23
2018-05-14T20:41:15.269Z,5.20
2018-05-14T20:43:43.624Z,4.63
2018-05-14T20:46:12.042Z,4.50
2018-05-14T20:48:40.425Z,4.57
2018-05-14T20:51:08.767Z,5.80
2018-05-14T20:53:37.120Z,4.47
2018-05-14T20:56:05.420Z,5.00
2018-05-14T20:58:33.784Z,4.47
2018-05-14T21:01:02.115Z,4.97
2018-05-14T21:03:30.472Z,4.80
2018-05-14T21:05:58.818Z,5.70
2018-05-14T21:08:27.386Z,5.00
2018-05-14T21:10:56.756Z,4.63
2018-05-14T21:13:25.138Z,5.27
2018-05-14T21:15:53.463Z,5.77
2018-05-14T21:18:21.840Z,6.30
2018-05-14T21:20:50.251Z,4.80
2018-05-14T21:23:18.645Z,4.97
2018-05-14T21:25:46.989Z,5.00
2018-05-14T21:28:15.312Z,5.30
2018-05-14T21:30:43.818Z,5.27
2018-05-14T21:33:12.221Z,5.70
2018-05-14T21:35:40.528Z,5.77
2018-05-14T21:38:14.604Z,5.47
2018-05-14T21:40:43.510Z,5.53
2018-05-14T21:43:12.180Z,5.37
2018-05-14T21:45:40.525Z,5.53
2018-05-14T21:48:08.912Z,6.73
2018-05-14T21:50:37.259Z,5.67
2018-05-14T21:53:12.354Z,6.67
2018-05-14T21:55:40.738Z,5.97
2018-05-14T21:58:09.068Z,5.23
2018-05-14T22:00:37.427Z,6.20
2018-05-14T22:03:05.848Z,5.60
2018-05-14T22:05:34.236Z,6.27
2018-05-14T22:08:02.596Z,6.63
2018-05-14T22:10:30.923Z,5.43
2018-05-14T22:12:59.243Z,6.77
2018-05-14T22:15:27.565Z,6.47
2018-05-14T22:17:56.007Z,7.17
2018-05-14T22:20:24.379Z,6.43
2018-05-14T22:22:52.716Z,6.03
2018-05-14T22:25:21.052Z,6.43
2018-05-14T22:27:49.381Z,6.57
2018-05-14T22:30:17.744Z,6.33
2018-05-14T22:32:46.071Z,5.57
2018-05-14T22:35:14.394Z,5.50
2018-05-14T22:37:42.726Z,5.60
2018-05-14T22:40:11.119Z,6.43
2018-05-14T22:42:39.584Z,6.40
2018-05-14T22:45:07.993Z,5.57
2018-05-14T22:47:36.342Z,6.50
2018-05-14T22:50:04.671Z,5.63
2018-05-14T22:52:33.022Z,6.20
2018-05-14T22:55:01.323Z,6.37
2018-05-14T22:57:29.668Z,5.80
2018-05-14T22:59:57.994Z,6.67
2018-05-14T23:02:26.359Z,6.53
2018-05-14T23:04:54.744Z,6.67
2018-05-14T23:07:23.079Z,6.00
2018-05-14T23:09:51.395Z,6.70
2018-05-14T23:12:19.813Z,6.30
2018-05-14T23:14:48.204Z,6.50
2018-05-14T23:19:55.665Z,6.17
2018-05-14T23:22:43.878Z,6.97
2018-05-14T23:25:12.231Z,6.10
2018-05-14T23:27:40.560Z,6.70
2018-05-14T23:30:09.002Z,6.53
2018-05-14T23:32:37.464Z,6.73
2018-05-14T23:35:05.860Z,7.03
2018-05-14T23:37:34.195Z,6.93
2018-05-14T23:40:02.550Z,6.30
2018-05-14T23:42:30.887Z,6.40
2018-05-14T23:44:59.231Z,7.10
2018-05-14T23:47:27.623Z,6.80
2018-05-14T23:49:55.970Z,6.97
2018-05-14T23:52:24.286Z,7.57
2018-05-14T23:54:52.696Z,7.00
2018-05-14T23:57:21.005Z,7.00
2018-05-14T23:59:49.379Z,6.70
